Time;durP1;ratioP1;P1;durP2;ratioP2;P2;SDS_P1;SDS_P2;PMS_P1;PMS_P2;Temp;Humidity;BMP_temperature;BMP_pressure;BME280_temperature;BME280_humidity;BME280_pressure;Samples;Min_cycle;Max_cycle;Signal;HPM_P1;HPM_P2
2023/09/23 00:01:09;;;;;;;10.83;10.03;;;;;;;11.97;90.84;100394.47;5053413;28;20690;-72
2023/09/23 00:03:36;;;;;;;10.63;9.70;;;;;;;11.99;90.65;100409.38;5053558;28;20213;-72
2023/09/23 00:06:03;;;;;;;13.27;10.23;;;;;;;11.98;90.54;100406.88;5053307;28;20734;-72
2023/09/23 00:08:30;;;;;;;12.23;10.07;;;;;;;12.03;90.56;100413.41;5053531;28;20191;-72
2023/09/23 00:10:57;;;;;;;10.37;9.23;;;;;;;12.09;90.37;100419.94;5053195;28;20211;-72
2023/09/23 00:13:23;;;;;;;11.20;10.10;;;;;;;11.98;90.37;100407.72;5053486;28;20205;-72
2023/09/23 00:15:50;;;;;;;9.97;8.93;;;;;;;12.11;89.80;100418.75;5053075;28;20195;-72
2023/09/23 00:18:17;;;;;;;11.80;9.93;;;;;;;12.07;90.07;100420.09;5053418;28;20190;-72
2023/09/23 00:20:46;;;;;;;11.07;9.70;;;;;;;12.08;89.73;100426.28;5053053;28;20273;-72
2023/09/23 00:23:13;;;;;;;9.97;9.03;;;;;;;12.09;89.96;100430.66;5053290;28;20207;-72
2023/09/23 00:25:40;;;;;;;9.67;9.03;;;;;;;12.12;89.49;100430.31;5053323;28;20278;-72
2023/09/23 00:28:11;;;;;;;9.90;9.03;;;;;;;12.08;89.27;100431.66;5052774;28;20187;-72
2023/09/23 00:30:38;;;;;;;10.33;9.37;;;;;;;12.11;89.61;100428.63;5053115;28;20301;-71
2023/09/23 00:33:05;;;;;;;10.47;9.67;;;;;;;12.21;89.63;100430.13;5053297;28;20215;-72
2023/09/23 00:35:36;;;;;;;10.90;10.10;;;;;;;12.21;89.54;100442.69;5053013;28;20189;-72
2023/09/23 00:38:04;;;;;;;15.63;10.70;;;;;;;12.20;89.53;100444.53;5053299;28;20506;-72
2023/09/23 00:40:32;;;;;;;11.77;10.77;;;;;;;12.21;89.74;100442.69;5053161;28;20222;-71
2023/09/23 00:43:06;;;;;;;13.33;11.83;;;;;;;12.25;89.28;100452.91;5052838;28;20203;-71
2023/09/23 00:45:34;;;;;;;12.80;10.53;;;;;;;12.08;89.81;100450.41;5052886;28;20705;-72
2023/09/23 00:48:01;;;;;;;13.27;10.83;;;;;;;12.19;89.46;100463.47;5052867;28;20659;-72
2023/09/23 00:50:29;;;;;;;13.97;11.00;;;;;;;12.20;88.82;100462.47;5051517;28;20234;-71
2023/09/23 00:52:56;;;;;;;13.13;11.83;;;;;;;12.25;89.02;100463.63;5053167;28;20175;-71
2023/09/23 00:55:26;;;;;;;15.93;11.00;;;;;;;12.14;88.87;100472.00;5051574;28;20219;-71
2023/09/23 00:57:53;;;;;;;12.70;11.43;;;;;;;12.18;88.71;100469.81;5051562;28;20184;-71
2023/09/23 01:00:29;;;;;;;12.97;10.80;;;;;;;12.10;89.26;100477.84;5051448;28;20217;-71
2023/09/23 01:02:55;;;;;;;11.97;10.77;;;;;;;12.06;89.12;100480.03;5051437;28;20242;-71
2023/09/23 01:05:27;;;;;;;13.40;12.13;;;;;;;12.04;89.13;100495.47;5053025;28;20185;-71
2023/09/23 01:08:00;;;;;;;19.40;11.33;;;;;;;12.02;89.37;100483.22;5052992;28;20180;-71
2023/09/23 01:10:28;;;;;;;10.77;9.87;;;;;;;12.02;89.10;100489.41;5052873;28;20744;-71
2023/09/23 01:12:54;;;;;;;12.30;10.97;;;;;;;12.04;88.65;100492.78;5051426;28;20651;-71
2023/09/23 01:15:25;;;;;;;12.07;10.87;;;;;;;12.01;88.58;100489.59;5052521;28;20202;-71
2023/09/23 01:17:53;;;;;;;10.93;10.13;;;;;;;11.96;88.63;100495.47;5052914;28;20171;-72
2023/09/23 01:20:21;;;;;;;10.47;9.63;;;;;;;11.94;88.17;100500.13;5052753;28;20222;-72
2023/09/23 01:22:48;;;;;;;19.83;10.03;;;;;;;11.92;89.01;100498.63;5052472;28;20207;-72
2023/09/23 01:25:16;;;;;;;12.60;10.60;;;;;;;11.91;89.10;100503.16;5052569;28;20222;-72
2023/09/23 01:27:43;;;;;;;12.57;10.47;;;;;;;11.99;88.97;100497.81;5051221;28;20195;-72
2023/09/23 01:30:12;;;;;;;11.07;10.07;;;;;;;12.05;88.36;100507.03;5051227;28;20215;-71
2023/09/23 01:32:41;;;;;;;12.73;10.53;;;;;;;12.02;88.46;100512.69;5051195;28;20198;-71
2023/09/23 01:35:09;;;;;;;10.73;9.60;;;;;;;11.98;88.41;100512.19;5051192;28;20195;-71
2023/09/23 01:37:35;;;;;;;11.57;10.63;;;;;;;11.96;88.68;100521.41;5052966;28;20251;-71
2023/09/23 01:40:05;;;;;;;10.80;9.73;;;;;;;12.06;88.44;100516.72;5054716;28;20195;-71
2023/09/23 01:42:32;;;;;;;9.53;8.93;;;;;;;11.87;89.11;100516.03;5056421;28;20191;-71
2023/09/23 01:44:59;;;;;;;11.07;10.07;;;;;;;11.83;89.60;100528.09;5056561;28;20165;-71
2023/09/23 01:47:26;;;;;;;9.50;8.87;;;;;;;11.78;89.89;100522.38;5055912;28;20207;-71
2023/09/23 01:49:53;;;;;;;8.17;7.53;;;;;;;11.76;90.38;100526.22;5054514;28;20198;-70
2023/09/23 01:52:19;;;;;;;8.03;7.60;;;;;;;11.84;89.65;100527.06;5056049;28;20200;-72
2023/09/23 01:54:48;;;;;;;8.17;7.37;;;;;;;11.76;90.05;100532.41;5055963;28;20202;-72
2023/09/23 01:57:16;;;;;;;10.37;9.37;;;;;;;11.91;89.31;100540.66;5054402;28;20667;-72
2023/09/23 01:59:44;;;;;;;10.57;9.47;;;;;;;11.97;88.55;100537.31;5054391;28;20728;-72
2023/09/23 02:02:10;;;;;;;17.53;10.97;;;;;;;11.93;88.03;100543.16;5054401;28;20195;-71
2023/09/23 02:04:40;;;;;;;11.37;10.37;;;;;;;11.87;88.11;100550.03;5055571;28;20207;-71
2023/09/23 02:07:10;;;;;;;12.47;10.70;;;;;;;11.92;87.66;100553.06;5055787;28;20253;-71
2023/09/23 02:09:39;;;;;;;15.50;10.27;;;;;;;11.98;87.59;100552.38;5055419;28;20194;-71
2023/09/23 02:12:06;;;;;;;16.63;10.87;;;;;;;12.04;87.25;100554.41;5054050;28;20256;-71
2023/09/23 02:14:32;;;;;;;16.47;10.77;;;;;;;12.02;87.52;100559.09;5053975;28;20662;-71
2023/09/23 02:16:59;;;;;;;13.40;11.20;;;;;;;12.06;87.46;100559.59;5054038;28;20198;-71
2023/09/23 02:19:27;;;;;;;15.40;10.73;;;;;;;12.00;87.85;100569.16;5054001;28;20205;-71
2023/09/23 02:21:53;;;;;;;11.47;10.20;;;;;;;11.89;88.63;100569.44;5055135;28;20211;-71
2023/09/23 02:24:20;;;;;;;12.13;10.60;;;;;;;11.84;89.38;100575.28;5055070;28;20199;-70
2023/09/23 02:26:46;;;;;;;10.43;9.50;;;;;;;11.92;88.92;100581.69;5055402;28;20191;-69
2023/09/23 02:29:16;;;;;;;9.37;8.63;;;;;;;11.90;89.10;100571.13;5053822;28;20245;-69
2023/09/23 02:31:47;;;;;;;9.23;8.43;;;;;;;11.79;89.51;100580.31;5055011;28;20226;-68
2023/09/23 02:34:17;;;;;;;8.53;8.03;;;;;;;11.75;89.76;100584.28;5055280;28;20163;-68
2023/09/23 02:36:50;;;;;;;10.53;8.17;;;;;;;12.01;88.50;100588.75;5055239;28;20578;-69
2023/09/23 02:39:20;;;;;;;10.87;8.93;;;;;;;11.96;88.29;100589.22;5055182;28;20233;-69
2023/09/23 02:41:48;;;;;;;10.27;9.43;;;;;;;11.95;88.64;100590.22;5053516;28;20314;-68
2023/09/23 02:44:19;;;;;;;9.03;8.33;;;;;;;11.84;88.94;100591.34;5053462;28;20214;-68
2023/09/23 02:46:46;;;;;;;9.33;8.50;;;;;;;11.89;89.36;100597.06;5055073;28;20713;-69
2023/09/23 02:49:13;;;;;;;9.17;8.57;;;;;;;11.87;89.37;100592.88;5054710;28;20206;-69
2023/09/23 02:51:44;;;;;;;8.90;8.30;;;;;;;11.85;89.53;100594.88;5054572;28;20203;-69
2023/09/23 02:54:13;;;;;;;9.33;8.67;;;;;;;11.89;89.40;100589.03;5053381;28;20184;-69
2023/09/23 02:56:40;;;;;;;10.03;9.30;;;;;;;11.95;89.27;100597.41;5054807;28;20193;-69
2023/09/23 02:59:13;;;;;;;9.67;8.90;;;;;;;12.12;88.30;100591.09;5054801;28;20183;-69
2023/09/23 03:01:45;;;;;;;7.63;7.33;;;;;;;12.06;88.77;100600.63;5054515;28;20203;-68
2023/09/23 03:04:21;;;;;;;9.27;8.53;;;;;;;12.12;88.88;100597.28;5053110;28;20222;-69
2023/09/23 03:06:59;;;;;;;9.37;8.57;;;;;;;12.16;88.35;100601.31;5054646;28;20187;-69
2023/09/23 03:09:31;;;;;;;9.67;8.97;;;;;;;12.13;88.72;100607.03;5054895;28;20173;-69
2023/09/23 03:12:00;;;;;;;9.07;8.43;;;;;;;12.15;88.57;100615.72;5054469;28;20246;-68
2023/09/23 03:14:42;;;;;;;9.43;8.57;;;;;;;12.17;88.41;100611.03;5052791;28;20293;-71
2023/09/23 03:17:12;;;;;;;9.50;9.00;;;;;;;12.14;88.43;100608.69;5054737;28;20179;-71
2023/09/23 03:19:39;;;;;;;9.10;7.93;;;;;;;12.12;88.55;100609.84;5054433;28;20188;-71
2023/09/23 03:22:07;;;;;;;9.80;8.87;;;;;;;12.11;88.18;100602.81;5053993;28;20208;-71
2023/09/23 03:24:34;;;;;;;9.90;9.00;;;;;;;12.06;88.18;100605.13;5054239;28;20199;-71
2023/09/23 03:27:02;;;;;;;8.30;7.90;;;;;;;11.99;89.02;100606.81;5052755;28;20207;-71
2023/09/23 03:29:30;;;;;;;6.80;6.40;;;;;;;12.09;88.66;100607.50;5053914;28;20187;-71
2023/09/23 03:31:59;;;;;;;8.83;8.20;;;;;;;12.06;88.28;100607.81;5053102;28;20218;-71
2023/09/23 03:34:29;;;;;;;8.47;7.63;;;;;;;11.97;88.60;100620.34;5052582;28;20302;-71
2023/09/23 03:36:56;;;;;;;6.23;5.83;;;;;;;12.03;88.05;100621.56;5052579;28;20229;-71
2023/09/23 03:39:22;;;;;;;5.73;5.53;;;;;;;12.02;87.95;100625.22;5054340;28;20183;-71
2023/09/23 03:41:49;;;;;;;6.40;6.20;;;;;;;12.00;88.09;100628.09;5053620;28;20257;-71
2023/09/23 03:44:16;;;;;;;5.57;5.47;;;;;;;12.02;88.01;100615.34;5052321;28;20690;-72
2023/09/23 03:46:45;;;;;;;5.87;5.57;;;;;;;11.96;88.17;100612.50;5052351;28;20203;-70
2023/09/23 03:49:12;;;;;;;6.13;5.93;;;;;;;11.93;88.15;100626.19;5053573;28;20183;-70
2023/09/23 03:51:39;;;;;;;5.90;5.47;;;;;;;11.93;88.35;100620.84;5052208;28;20702;-69
2023/09/23 03:54:06;;;;;;;4.87;4.70;;;;;;;12.05;88.00;100630.28;5052253;28;20191;-69
2023/09/23 03:56:36;;;;;;;4.93;4.83;;;;;;;11.98;87.60;100627.41;5052192;28;20207;-69
2023/09/23 03:59:05;;;;;;;5.57;5.20;;;;;;;11.90;88.04;100630.91;5052471;28;20191;-69
2023/09/23 04:01:32;;;;;;;6.67;5.57;;;;;;;11.88;88.23;100626.72;5053121;28;20215;-69
2023/09/23 04:04:03;;;;;;;5.40;5.20;;;;;;;11.87;88.34;100631.22;5053277;28;20199;-68
2023/09/23 04:06:30;;;;;;;5.47;5.07;;;;;;;11.88;88.54;100632.88;5052116;28;20270;-68
2023/09/23 04:08:58;;;;;;;7.20;5.10;;;;;;;11.83;88.21;100629.88;5053250;28;20187;-68
2023/09/23 04:11:26;;;;;;;5.63;4.90;;;;;;;11.87;88.16;100638.44;5053460;28;20626;-68
2023/09/23 04:13:53;;;;;;;4.90;4.60;;;;;;;11.81;88.48;100639.06;5053059;28;20187;-68
2023/09/23 04:16:20;;;;;;;4.70;4.53;;;;;;;11.76;88.93;100647.56;5053579;28;20221;-68
2023/09/23 04:18:46;;;;;;;4.57;4.27;;;;;;;11.89;88.58;100647.97;5053124;28;20218;-68
2023/09/23 04:21:13;;;;;;;9.17;4.80;;;;;;;11.82;88.89;100652.31;5053206;28;20211;-68
2023/09/23 04:23:40;;;;;;;6.83;4.20;;;;;;;11.95;88.63;100654.53;5053322;28;20207;-68
2023/09/23 04:26:08;;;;;;;4.17;3.93;;;;;;;11.91;88.26;100655.84;5053142;28;20191;-68
2023/09/23 04:28:34;;;;;;;5.13;4.00;;;;;;;12.00;88.11;100656.72;5053636;28;20183;-68
2023/09/23 04:31:01;;;;;;;3.60;3.50;;;;;;;11.95;88.41;100659.03;5053259;28;20674;-68
2023/09/23 04:33:28;;;;;;;9.07;3.47;;;;;;;11.95;87.89;100659.03;5053316;28;20257;-65
2023/09/23 04:35:56;;;;;;;7.20;3.83;;;;;;;12.00;88.29;100668.28;5053001;28;20183;-65
2023/09/23 04:38:24;;;;;;;4.37;4.13;;;;;;;11.86;88.39;100660.84;5052981;28;20183;-65
2023/09/23 04:40:51;;;;;;;6.43;3.97;;;;;;;11.96;88.56;100666.09;5053142;28;20750;-65
2023/09/23 04:43:19;;;;;;;4.57;4.33;;;;;;;12.00;88.42;100672.78;5053081;28;20195;-65
2023/09/23 04:45:47;;;;;;;3.50;3.40;;;;;;;11.87;88.93;100668.72;5052944;28;20187;-65
2023/09/23 04:48:14;;;;;;;3.43;3.40;;;;;;;11.82;89.22;100668.38;5053126;28;20233;-65
2023/09/23 04:50:44;;;;;;;3.90;3.57;;;;;;;12.02;88.05;100671.63;5052792;28;20296;-65
2023/09/23 04:53:11;;;;;;;4.33;3.37;;;;;;;12.06;87.70;100685.53;5053107;28;20202;-65
2023/09/23 04:55:38;;;;;;;6.23;3.07;;;;;;;12.09;87.28;100686.06;5052855;28;20562;-65
2023/09/23 04:58:08;;;;;;;5.50;3.43;;;;;;;11.95;87.59;100685.81;5053051;28;20188;-65
2023/09/23 05:00:36;;;;;;;3.80;3.70;;;;;;;11.97;87.82;100687.34;5053248;28;20219;-65
2023/09/23 05:03:04;;;;;;;9.70;3.43;;;;;;;11.92;88.19;100688.84;5052726;28;20188;-65
2023/09/23 05:05:30;;;;;;;3.37;3.27;;;;;;;12.03;87.79;100696.56;5053185;28;20203;-65
2023/09/23 05:07:59;;;;;;;3.87;3.50;;;;;;;11.90;88.34;100705.91;5052665;28;20195;-65
2023/09/23 05:10:26;;;;;;;3.33;3.30;;;;;;;12.07;87.41;100697.94;5052632;28;20578;-65
2023/09/23 05:12:56;;;;;;;5.70;3.87;;;;;;;12.10;87.46;100701.13;5052649;28;20191;-65
2023/09/23 05:15:24;;;;;;;3.50;3.27;;;;;;;11.99;87.64;100704.09;5056236;28;20229;-65
2023/09/23 05:17:52;;;;;;;3.30;3.17;;;;;;;12.08;87.41;100713.00;5056424;28;20191;-65
2023/09/23 05:20:20;;;;;;;8.70;3.97;;;;;;;11.99;87.89;100724.69;5056594;28;20211;-65
2023/09/23 05:22:48;;;;;;;4.87;3.30;;;;;;;12.10;87.22;100738.63;5056919;28;20605;-65
2023/09/23 05:25:15;;;;;;;2.67;2.67;;;;;;;12.14;86.98;100733.78;5056174;28;20242;-65
2023/09/23 05:27:43;;;;;;;4.20;4.03;;;;;;;12.06;87.19;100745.31;5056510;28;20537;-65
2023/09/23 05:30:10;;;;;;;3.77;3.47;;;;;;;12.10;86.92;100741.31;5056141;28;20210;-65
2023/09/23 05:32:37;;;;;;;3.70;3.70;;;;;;;12.07;87.08;100746.16;5056131;28;20685;-65
2023/09/23 05:35:09;;;;;;;6.40;3.43;;;;;;;12.03;87.11;100742.13;5056361;28;20183;-65
2023/09/23 05:37:40;;;;;;;8.47;4.37;;;;;;;11.93;87.64;100760.16;5056336;28;20175;-65
2023/09/23 05:40:40;;;;;;;4.57;4.13;;;;;;;12.13;86.79;100761.63;5056526;28;20293;-65
2023/09/23 05:42:59;;;;;;;7.80;4.00;;;;;;;11.98;87.79;100766.72;5055712;28;20226;-65
2023/09/23 05:45:26;;;;;;;4.57;4.37;;;;;;;12.03;87.66;100787.69;5056132;28;20662;-65
2023/09/23 05:47:52;;;;;;;9.73;4.17;;;;;;;12.14;86.90;100784.72;5056196;28;20199;-65
2023/09/23 05:50:20;;;;;;;5.00;4.80;;;;;;;12.21;86.75;100791.13;5056058;28;20211;-65
2023/09/23 05:52:48;;;;;;;4.53;4.23;;;;;;;12.14;87.37;100790.06;5056370;28;20543;-65
2023/09/23 05:55:14;;;;;;;5.40;5.20;;;;;;;12.20;86.64;100795.66;5056038;28;20615;-65
2023/09/23 05:57:41;;;;;;;5.13;4.63;;;;;;;12.20;86.83;100801.00;5055996;28;20187;-65
2023/09/23 06:00:13;;;;;;;4.90;4.37;;;;;;;12.14;87.05;100807.00;5055535;28;20203;-65
2023/09/23 06:02:41;;;;;;;4.70;4.50;;;;;;;12.17;86.75;100808.53;5056199;28;20652;-65
2023/09/23 06:05:08;;;;;;;5.90;5.03;;;;;;;12.08;86.90;100809.47;5055475;28;20211;-65
2023/09/23 06:07:34;;;;;;;4.63;4.43;;;;;;;12.08;87.21;100812.16;5055793;28;20194;-65
2023/09/23 06:10:03;;;;;;;6.07;5.47;;;;;;;12.14;86.89;100820.41;5055891;28;20242;-65
2023/09/23 06:12:31;;;;;;;5.17;4.40;;;;;;;12.05;87.14;100826.69;5055369;28;20198;-65
2023/09/23 06:14:58;;;;;;;5.27;5.07;;;;;;;12.12;87.09;100832.28;5055233;28;20184;-65
2023/09/23 06:17:27;;;;;;;5.00;4.57;;;;;;;12.13;86.94;100829.47;5055857;28;20191;-65
2023/09/23 06:19:58;;;;;;;5.67;4.33;;;;;;;12.04;87.18;100833.09;5055160;28;20686;-65
2023/09/23 06:22:26;;;;;;;5.43;4.83;;;;;;;12.10;87.11;100839.63;5055720;28;20180;-64
2023/09/23 06:24:54;;;;;;;8.03;5.13;;;;;;;12.02;87.06;100851.16;5054663;28;20207;-64
2023/09/23 06:27:20;;;;;;;5.23;4.93;;;;;;;12.11;87.40;100847.53;5055097;28;20209;-65
2023/09/23 06:29:46;;;;;;;5.60;5.30;;;;;;;12.15;87.15;100856.91;5055266;28;20194;-65
2023/09/23 06:32:13;;;;;;;5.90;5.40;;;;;;;12.18;87.35;100861.97;5055630;28;20188;-65
2023/09/23 06:34:39;;;;;;;5.50;5.00;;;;;;;12.09;86.99;100854.91;5054973;28;20175;-65
2023/09/23 06:37:06;;;;;;;13.30;5.13;;;;;;;12.21;87.30;100863.50;5054945;28;20659;-65
2023/09/23 06:39:32;;;;;;;7.33;5.83;;;;;;;12.17;87.10;100856.78;5054928;28;20247;-65
2023/09/23 06:41:59;;;;;;;7.00;6.30;;;;;;;12.17;86.66;100867.50;5054775;28;20207;-65
2023/09/23 06:44:25;;;;;;;7.27;6.30;;;;;;;12.21;87.00;100871.53;5054741;28;20203;-65
2023/09/23 06:46:52;;;;;;;11.43;6.47;;;;;;;12.27;87.06;100873.56;5054738;28;20191;-65
2023/09/23 06:49:19;;;;;;;6.83;6.23;;;;;;;12.27;86.80;100882.44;5054687;28;20561;-65
2023/09/23 06:51:45;;;;;;;15.80;6.00;;;;;;;12.22;86.56;100892.00;5054585;28;20265;-65
2023/09/23 06:54:12;;;;;;;6.43;5.93;;;;;;;12.28;86.58;100902.06;5054581;28;20237;-65
2023/09/23 06:56:38;;;;;;;9.67;8.17;;;;;;;12.27;86.99;100905.75;5054474;28;20187;-65
2023/09/23 06:59:04;;;;;;;11.30;7.13;;;;;;;12.37;86.89;100906.47;5054732;28;20202;-65
2023/09/23 07:01:33;;;;;;;10.43;7.63;;;;;;;12.40;86.72;100911.50;5054294;28;20207;-65
2023/09/23 07:03:59;;;;;;;8.43;7.67;;;;;;;12.51;86.61;100913.09;5054527;28;20182;-65
2023/09/23 07:06:26;;;;;;;11.93;8.37;;;;;;;12.53;86.01;100922.66;5054357;28;20202;-65
2023/09/23 07:08:52;;;;;;;18.80;8.60;;;;;;;12.54;86.23;100920.81;5053324;28;20187;-65
2023/09/23 07:11:19;;;;;;;11.20;7.80;;;;;;;12.43;87.08;100929.16;5054170;28;20253;-65
2023/09/23 07:13:46;;;;;;;9.10;6.67;;;;;;;12.58;85.67;100931.06;5054484;28;20187;-65
2023/09/23 07:16:16;;;;;;;6.87;6.30;;;;;;;12.63;85.60;100938.63;5054696;28;20168;-65
2023/09/23 07:18:45;;;;;;;9.90;9.13;;;;;;;12.66;85.25;100936.47;5054104;28;20618;-65
2023/09/23 07:21:12;;;;;;;8.13;7.40;;;;;;;12.61;85.76;100938.78;5053904;28;20204;-65
2023/09/23 07:23:39;;;;;;;9.20;8.17;;;;;;;12.66;85.32;100943.66;5053965;28;20205;-65
2023/09/23 07:26:05;;;;;;;7.20;6.77;;;;;;;12.56;85.17;100933.06;5053861;28;20682;-65
2023/09/23 07:28:32;;;;;;;11.27;6.77;;;;;;;12.65;85.49;100941.97;5053815;28;20187;-65
2023/09/23 07:30:59;;;;;;;8.40;7.87;;;;;;;12.66;85.33;100946.34;5053762;28;20214;-65
2023/09/23 07:33:25;;;;;;;9.20;8.53;;;;;;;12.59;85.59;100948.00;5054293;28;20188;-65
2023/09/23 07:35:53;;;;;;;14.57;8.33;;;;;;;12.63;85.61;100958.25;5054063;28;20194;-65
2023/09/23 07:38:19;;;;;;;9.07;8.30;;;;;;;12.50;86.05;100960.53;5053443;28;20542;-65
2023/09/23 07:40:48;;;;;;;9.00;8.40;;;;;;;12.72;85.16;100961.81;5053643;28;20211;-65
2023/09/23 07:43:15;;;;;;;9.73;8.83;;;;;;;12.63;85.60;100963.63;5053618;28;20241;-65
2023/09/23 07:45:41;;;;;;;9.27;8.00;;;;;;;12.66;85.08;100965.13;5053533;28;20210;-65
2023/09/23 07:48:08;;;;;;;9.03;8.33;;;;;;;12.68;85.27;100972.03;5053522;28;20195;-65
2023/09/23 07:50:34;;;;;;;8.10;7.80;;;;;;;12.85;85.71;100978.34;5053358;28;20250;-65
2023/09/23 07:53:01;;;;;;;8.87;8.30;;;;;;;12.87;85.22;100984.38;5053341;28;20179;-65
2023/09/23 07:55:28;;;;;;;10.00;9.37;;;;;;;12.78;84.99;100988.84;5053585;28;20270;-65
2023/09/23 07:57:54;;;;;;;16.10;8.77;;;;;;;12.83;85.10;100985.69;5053584;28;20183;-65
2023/09/23 08:00:21;;;;;;;8.60;8.10;;;;;;;12.85;86.11;101002.47;5053248;28;20686;-65
2023/09/23 08:02:49;;;;;;;11.90;9.40;;;;;;;12.84;85.50;101000.78;5053285;28;20191;-65
2023/09/23 08:05:16;;;;;;;10.07;9.40;;;;;;;12.83;85.17;100993.72;5053235;28;20203;-65
2023/09/23 08:07:43;;;;;;;11.37;10.10;;;;;;;12.83;85.13;101007.16;5053829;28;20187;-65
2023/09/23 08:10:09;;;;;;;11.67;9.70;;;;;;;12.92;85.37;101013.41;5053089;28;20632;-65
2023/09/23 08:12:36;;;;;;;12.47;9.40;;;;;;;12.93;85.13;101015.09;5053182;28;20194;-65
2023/09/23 08:15:03;;;;;;;12.13;10.80;;;;;;;12.96;85.28;101012.09;5053441;28;20195;-65
2023/09/23 08:17:30;;;;;;;13.20;12.10;;;;;;;13.07;84.44;101020.69;5053067;28;20183;-65
2023/09/23 08:19:58;;;;;;;13.57;11.60;;;;;;;13.04;84.53;101014.81;5052819;28;20195;-65
2023/09/23 08:22:24;;;;;;;12.17;10.27;;;;;;;13.08;84.51;101021.53;5053097;28;20180;-65
2023/09/23 08:24:51;;;;;;;11.20;10.60;;;;;;;13.03;84.25;101018.47;5052976;28;20211;-65
2023/09/23 08:27:17;;;;;;;12.23;10.90;;;;;;;13.06;85.05;101024.41;5053014;28;20198;-65
2023/09/23 08:29:44;;;;;;;13.07;11.80;;;;;;;13.17;84.42;101028.66;5046220;28;20613;-66
2023/09/23 08:32:10;;;;;;;12.93;11.93;;;;;;;13.23;84.15;101030.72;5032755;28;20217;-66
2023/09/23 08:34:37;;;;;;;12.70;11.70;;;;;;;13.33;83.78;101031.41;5030826;28;20192;-66
2023/09/23 08:37:04;;;;;;;12.30;10.47;;;;;;;13.40;83.84;101029.78;5032847;28;20648;-66
2023/09/23 08:39:35;;;;;;;9.80;9.17;;;;;;;13.32;84.31;101037.81;5033865;28;20594;-66
2023/09/23 08:42:04;;;;;;;9.73;9.07;;;;;;;13.43;84.08;101044.72;5032916;28;20299;-66
2023/09/23 08:44:33;;;;;;;9.17;8.63;;;;;;;13.55;83.23;101036.19;5032884;28;20717;-66
2023/09/23 08:47:00;;;;;;;13.17;8.87;;;;;;;13.48;84.21;101037.84;5032932;28;20188;-66
2023/09/23 08:49:28;;;;;;;12.43;8.17;;;;;;;13.53;84.61;101038.22;5036299;28;20223;-66
2023/09/23 08:51:55;;;;;;;10.83;8.60;;;;;;;13.79;83.94;101045.34;5036886;28;20203;-66
2023/09/23 08:54:25;;;;;;;8.50;7.90;;;;;;;13.87;83.15;101040.81;5036888;28;20210;-66
2023/09/23 08:56:54;;;;;;;8.43;7.67;;;;;;;13.88;81.64;101044.31;5036872;28;20195;-66
2023/09/23 08:59:20;;;;;;;7.93;7.37;;;;;;;13.83;83.24;101052.06;5037160;28;20190;-66
2023/09/23 09:01:47;;;;;;;8.27;7.43;;;;;;;13.92;81.86;101057.25;5036770;28;20208;-66
2023/09/23 09:04:17;;;;;;;8.40;7.70;;;;;;;13.92;82.76;101057.25;5036989;28;20678;-66
2023/09/23 09:07:02;;;;;;;7.90;7.13;;;;;;;13.86;82.59;101062.47;5036568;28;20220;-66
2023/09/23 09:09:28;;;;;;;7.27;6.67;;;;;;;13.89;81.46;101062.13;5036938;28;20180;-66
2023/09/23 09:11:55;;;;;;;9.03;8.00;;;;;;;13.79;81.50;101058.78;5036560;28;20279;-65
2023/09/23 09:14:24;;;;;;;8.27;7.70;;;;;;;13.86;81.82;101065.16;5036765;28;20257;-65
2023/09/23 09:16:51;;;;;;;7.77;6.93;;;;;;;13.94;81.49;101063.34;5036542;28;20557;-65
2023/09/23 09:19:19;;;;;;;10.83;7.20;;;;;;;13.93;82.15;101077.78;5036771;28;20210;-65
2023/09/23 09:21:46;;;;;;;7.30;6.70;;;;;;;14.02;81.46;101073.25;5036422;28;20580;-66
2023/09/23 09:24:12;;;;;;;6.93;6.40;;;;;;;13.87;82.10;101077.59;5036405;28;20180;-66
2023/09/23 09:26:39;;;;;;;6.43;6.00;;;;;;;13.97;81.30;101073.75;5036250;28;20204;-66
2023/09/23 09:29:06;;;;;;;7.43;6.80;;;;;;;13.91;81.97;101087.03;5036575;28;20207;-66
2023/09/23 09:31:34;;;;;;;7.53;6.90;;;;;;;14.01;82.15;101083.16;5036157;28;20250;-66
2023/09/23 09:34:05;;;;;;;14.20;8.13;;;;;;;14.06;82.70;101088.03;5036071;28;20230;-66
2023/09/23 09:36:36;;;;;;;7.90;7.27;;;;;;;14.27;81.99;101090.25;5036430;28;20176;-66
2023/09/23 09:39:09;;;;;;;8.63;7.33;;;;;;;14.46;80.09;101096.22;5036428;28;20218;-66
2023/09/23 09:41:46;;;;;;;10.37;6.90;;;;;;;14.56;79.68;101098.72;5036047;28;20631;-66
2023/09/23 09:44:15;;;;;;;7.17;6.83;;;;;;;14.38;79.47;101095.38;5036222;28;20180;-66
2023/09/23 09:46:43;;;;;;;12.53;7.37;;;;;;;14.52;78.60;101098.22;5035823;28;20578;-66
2023/09/23 09:49:10;;;;;;;6.97;6.57;;;;;;;14.61;78.80;101091.81;5035809;28;20202;-66
2023/09/23 09:51:40;;;;;;;11.63;6.70;;;;;;;14.62;77.92;101098.03;5035771;28;20208;-66
2023/09/23 09:54:09;;;;;;;6.53;6.03;;;;;;;14.63;76.75;101103.28;5036076;28;20180;-65
2023/09/23 09:56:38;;;;;;;6.77;6.10;;;;;;;14.61;77.05;101090.97;5035672;28;20208;-66
2023/09/23 09:59:05;;;;;;;7.03;6.40;;;;;;;14.68;77.31;101105.47;5035624;28;20194;-66
2023/09/23 10:01:33;;;;;;;5.43;5.23;;;;;;;14.72;76.23;101103.25;5035110;28;20245;-66
2023/09/23 10:03:59;;;;;;;6.23;5.97;;;;;;;14.84;77.54;101107.28;5035977;28;20195;-66
2023/09/23 10:06:26;;;;;;;8.53;6.30;;;;;;;14.90;77.57;101110.13;5035732;28;20208;-66
2023/09/23 10:08:53;;;;;;;4.57;4.33;;;;;;;14.82;77.44;101111.97;5035487;28;20179;-66
2023/09/23 10:11:34;;;;;;;6.17;5.77;;;;;;;14.75;75.01;101111.84;5035361;28;20204;-66
2023/09/23 10:14:16;;;;;;;5.37;5.07;;;;;;;14.64;76.77;101115.69;5035534;28;20223;-66
2023/09/23 10:16:51;;;;;;;7.43;4.80;;;;;;;14.69;77.06;101117.03;5035704;28;20199;-66
2023/09/23 10:19:49;;;;;;;6.57;6.07;;;;;;;14.81;77.25;101118.41;5034026;28;20215;-66
2023/09/23 10:22:18;;;;;;;5.30;5.00;;;;;;;14.99;76.10;101119.88;5034955;28;20200;-66
2023/09/23 10:24:46;;;;;;;6.33;5.00;;;;;;;14.98;75.86;101125.41;5035406;28;20234;-66
2023/09/23 10:27:21;;;;;;;5.57;5.07;;;;;;;15.02;74.40;101121.41;5035703;28;20192;-66
2023/09/23 10:29:47;;;;;;;5.37;5.03;;;;;;;14.93;75.28;101128.66;5035544;28;20615;-67
2023/09/23 10:32:15;;;;;;;4.70;4.40;;;;;;;14.90;74.70;101125.44;5035333;28;20187;-66
2023/09/23 10:34:50;;;;;;;4.50;4.40;;;;;;;14.94;74.32;101130.31;5035060;28;20192;-66
2023/09/23 10:37:29;;;;;;;4.67;4.57;;;;;;;14.87;74.00;101131.16;5035590;28;20199;-67
2023/09/23 10:40:12;;;;;;;4.53;4.37;;;;;;;14.94;73.30;101134.84;5034855;28;20203;-66
2023/09/23 10:42:44;;;;;;;4.90;4.70;;;;;;;15.05;72.63;101129.13;5035507;28;20628;-66
2023/09/23 10:45:12;;;;;;;5.50;5.10;;;;;;;15.16;71.74;101133.31;5035129;28;20552;-66
2023/09/23 10:47:38;;;;;;;4.67;4.57;;;;;;;15.27;72.82;101133.81;5035113;28;20188;-66
2023/09/23 10:50:07;;;;;;;5.70;5.30;;;;;;;15.12;71.79;101134.66;5034994;28;20195;-67
2023/09/23 10:52:34;;;;;;;8.90;4.87;;;;;;;15.10;73.16;101142.94;5034736;28;20215;-66
2023/09/23 10:55:01;;;;;;;7.27;4.93;;;;;;;15.03;73.76;101150.84;5034707;28;20199;-66
2023/09/23 10:57:27;;;;;;;6.07;5.83;;;;;;;15.14;73.61;101157.75;5035128;28;20242;-66
2023/09/23 10:59:55;;;;;;;5.13;4.93;;;;;;;15.09;73.98;101157.41;5034886;28;20606;-67
2023/09/23 11:02:25;;;;;;;4.70;3.97;;;;;;;14.96;72.27;101155.22;5034522;28;20663;-66
2023/09/23 11:04:55;;;;;;;4.00;3.90;;;;;;;15.02;72.53;101161.81;5034732;28;20583;-66
2023/09/23 11:07:24;;;;;;;11.50;3.60;;;;;;;15.00;71.54;101170.03;5033161;28;20238;-66
2023/09/23 11:09:53;;;;;;;4.30;4.03;;;;;;;15.12;71.81;101175.91;5034598;28;20187;-67
2023/09/23 11:12:20;;;;;;;4.27;3.63;;;;;;;14.97;71.56;101169.53;5034656;28;20180;-66
2023/09/23 11:14:48;;;;;;;4.23;4.03;;;;;;;15.16;73.46;101179.94;5034305;28;20218;-66
2023/09/23 11:17:25;;;;;;;3.60;3.60;;;;;;;15.14;72.65;101173.91;5034156;28;20184;-66
2023/09/23 11:19:59;;;;;;;5.43;4.33;;;;;;;15.14;72.42;101187.38;5034364;28;20256;-66
2023/09/23 11:22:27;;;;;;;6.83;4.07;;;;;;;15.13;71.79;101195.59;5034169;28;20182;-66
2023/09/23 11:24:55;;;;;;;4.10;3.97;;;;;;;15.09;72.35;101192.41;5034343;28;20547;-66
2023/09/23 11:27:24;;;;;;;11.90;4.00;;;;;;;15.04;71.68;101189.38;5034331;28;20195;-66